Time;durP1;ratioP1;P1;durP2;ratioP2;P2;SDS_P1;SDS_P2;PMS_P1;PMS_P2;Temp;Humidity;BMP_temperature;BMP_pressure;BME280_temperature;BME280_humidity;BME280_pressure;Samples;Min_cycle;Max_cycle;Signal;HPM_P1;HPM_P2
2021/03/25 00:16:56;;;;;;;13.88;8.75;;;;;;;;;;4932889;29;20220;-96
2021/03/25 00:19:25;;;;;;;14.48;9.02;;;;;;;;;;4923728;29;20204;-96
2021/03/25 00:21:51;;;;;;;12.65;8.30;;;;;;;;;;4932299;29;20305;-96
2021/03/25 00:24:18;;;;;;;12.32;8.27;;;;;;;;;;4944723;29;20297;-96
2021/03/25 00:26:44;;;;;;;12.50;8.20;;;;;;;;;;4937353;29;20224;-96
2021/03/25 00:29:12;;;;;;;12.88;8.38;;;;;;;;;;4938351;29;20211;-96
2021/03/25 00:31:38;;;;;;;12.13;8.32;;;;;;;;;;4931720;29;20216;-96
2021/03/25 00:34:07;;;;;;;9.20;6.45;;;;;;;;;;4938903;29;20212;-96
2021/03/25 00:36:33;;;;;;;9.63;6.70;;;;;;;;;;4936462;29;20216;-96
2021/03/25 00:38:59;;;;;;;10.20;7.15;;;;;;;;;;4938237;29;20214;-96
2021/03/25 00:41:26;;;;;;;9.50;6.75;;;;;;;;;;4931774;29;20218;-96
2021/03/25 00:43:52;;;;;;;10.02;7.30;;;;;;;;;;4932130;29;20239;-96
2021/03/25 00:46:18;;;;;;;11.40;8.15;;;;;;;;;;4929661;29;20205;-96
2021/03/25 00:48:44;;;;;;;14.35;7.63;;;;;;;;;;4948359;29;20214;-96
2021/03/25 00:51:11;;;;;;;11.95;7.80;;;;;;;;;;4943600;29;20215;-96
2021/03/25 00:53:38;;;;;;;11.43;6.65;;;;;;;;;;4945081;29;20220;-96
2021/03/25 00:56:05;;;;;;;10.50;6.13;;;;;;;;;;4927032;29;20240;-96
2021/03/25 00:58:31;;;;;;;8.07;5.95;;;;;;;;;;4931539;29;20239;-96
2021/03/25 01:00:57;;;;;;;11.80;6.85;;;;;;;;;;4940243;29;20202;-96
2021/03/25 01:03:24;;;;;;;13.43;7.22;;;;;;;;;;4929580;29;20718;-96
2021/03/25 01:05:50;;;;;;;9.98;6.65;;;;;;;;;;4939666;29;20218;-96
2021/03/25 01:08:33;;;;;;;10.07;6.40;;;;;;;;;;4942201;29;20222;-95
2021/03/25 01:11:00;;;;;;;12.52;6.47;;;;;;;;;;4939028;29;20213;-96
2021/03/25 01:13:28;;;;;;;15.50;7.25;;;;;;;;;;4930310;29;20221;-96
2021/03/25 01:15:54;;;;;;;11.75;7.50;;;;;;;;;;4930408;29;20236;-95
2021/03/25 01:18:21;;;;;;;12.18;7.60;;;;;;;;;;4927677;29;20671;-96
2021/03/25 01:20:48;;;;;;;13.80;6.70;;;;;;;;;;4929165;29;20207;-96
2021/03/25 01:23:15;;;;;;;11.73;7.63;;;;;;;;;;4933324;29;20290;-96
2021/03/25 01:25:42;;;;;;;10.82;7.20;;;;;;;;;;4942989;29;20586;-96
2021/03/25 01:28:10;;;;;;;11.25;7.20;;;;;;;;;;4914295;29;20210;-96
2021/03/25 01:30:37;;;;;;;15.82;8.05;;;;;;;;;;4935214;29;20214;-94
2021/03/25 01:33:05;;;;;;;14.27;8.55;;;;;;;;;;4943025;29;20270;-95
2021/03/25 01:35:31;;;;;;;13.55;7.85;;;;;;;;;;4930502;29;20215;-95
2021/03/25 01:37:58;;;;;;;12.52;8.82;;;;;;;;;;4940112;29;20247;-95
2021/03/25 01:40:26;;;;;;;20.63;8.90;;;;;;;;;;4935237;29;20236;-95
2021/03/25 01:43:06;;;;;;;10.63;7.90;;;;;;;;;;4938200;29;20580;-96
2021/03/25 01:45:37;;;;;;;14.15;8.10;;;;;;;;;;4937849;29;20214;-96
2021/03/25 01:48:04;;;;;;;12.88;8.25;;;;;;;;;;4927090;29;20214;-95
2021/03/25 01:50:30;;;;;;;9.55;6.95;;;;;;;;;;4933675;29;20211;-95
2021/03/25 01:53:00;;;;;;;12.32;7.30;;;;;;;;;;4959734;29;20225;-96
2021/03/25 01:55:33;;;;;;;12.55;9.05;;;;;;;;;;4947764;29;20202;-96
2021/03/25 01:58:23;;;;;;;8.70;5.72;;;;;;;;;;4928957;29;20211;-96
2021/03/25 02:00:55;;;;;;;11.45;6.55;;;;;;;;;;4913070;29;20214;-95
2021/03/25 02:03:31;;;;;;;9.75;6.47;;;;;;;;;;4937735;29;20228;-94
2021/03/25 02:06:03;;;;;;;9.90;7.20;;;;;;;;;;4935347;29;20208;-95
2021/03/25 02:08:34;;;;;;;10.48;8.00;;;;;;;;;;4942575;29;20234;-95
2021/03/25 02:11:05;;;;;;;13.25;7.32;;;;;;;;;;4934981;29;20273;-95
2021/03/25 02:13:33;;;;;;;13.20;8.40;;;;;;;;;;4935874;29;20208;-96
2021/03/25 02:16:01;;;;;;;14.00;7.75;;;;;;;;;;4926639;29;20266;-95
2021/03/25 02:18:36;;;;;;;10.85;8.20;;;;;;;;;;4927306;29;20211;-95
2021/03/25 02:21:15;;;;;;;16.73;8.40;;;;;;;;;;4928758;29;20282;-94
2021/03/25 02:24:05;;;;;;;13.52;9.38;;;;;;;;;;4923497;29;20648;-95
2021/03/25 02:26:32;;;;;;;14.38;8.82;;;;;;;;;;4889412;29;20208;-95
2021/03/25 02:29:08;;;;;;;13.32;8.60;;;;;;;;;;4933739;29;20208;-95
2021/03/25 02:31:37;;;;;;;12.27;8.80;;;;;;;;;;4927420;29;20212;-95
2021/03/25 02:34:08;;;;;;;14.25;8.70;;;;;;;;;;4914904;29;20198;-96
2021/03/25 02:36:37;;;;;;;12.60;8.27;;;;;;;;;;4927006;29;20615;-96
2021/03/25 02:39:06;;;;;;;15.90;9.25;;;;;;;;;;4930752;29;20201;-96
2021/03/25 02:41:34;;;;;;;12.02;8.38;;;;;;;;;;4930212;29;20212;-95
2021/03/25 02:44:03;;;;;;;12.88;8.40;;;;;;;;;;4928124;29;20230;-95
2021/03/25 02:46:31;;;;;;;10.98;7.90;;;;;;;;;;4927416;29;20211;-95
2021/03/25 02:49:01;;;;;;;9.60;7.50;;;;;;;;;;4929730;29;20208;-95
2021/03/25 02:51:29;;;;;;;11.75;7.25;;;;;;;;;;4927189;29;20303;-95
2021/03/25 02:53:55;;;;;;;9.50;7.93;;;;;;;;;;4927938;29;20203;-95
2021/03/25 02:56:24;;;;;;;10.25;7.80;;;;;;;;;;4926825;29;20310;-95
2021/03/25 02:58:53;;;;;;;12.60;7.75;;;;;;;;;;4933663;29;20212;-95
2021/03/25 03:01:20;;;;;;;9.80;6.85;;;;;;;;;;4933439;29;20265;-94
2021/03/25 03:03:48;;;;;;;9.32;6.90;;;;;;;;;;4943535;29;20231;-96
2021/03/25 03:06:19;;;;;;;9.63;7.30;;;;;;;;;;4940795;29;20424;-95
2021/03/25 03:08:47;;;;;;;9.60;6.65;;;;;;;;;;4937744;29;20212;-95
2021/03/25 03:11:16;;;;;;;9.52;6.90;;;;;;;;;;4931654;29;20220;-94
2021/03/25 03:13:44;;;;;;;10.95;7.40;;;;;;;;;;4933869;29;20212;-94
2021/03/25 03:16:16;;;;;;;11.07;7.70;;;;;;;;;;4935219;29;20241;-95
2021/03/25 03:18:44;;;;;;;12.40;8.23;;;;;;;;;;4928739;29;20215;-95
2021/03/25 03:21:12;;;;;;;14.27;8.40;;;;;;;;;;4934573;29;20759;-95
2021/03/25 03:23:39;;;;;;;12.50;8.75;;;;;;;;;;4931745;29;20239;-94
2021/03/25 03:26:07;;;;;;;12.63;7.85;;;;;;;;;;4936058;29;20740;-95
2021/03/25 03:28:34;;;;;;;10.40;6.97;;;;;;;;;;4935851;29;20341;-95
2021/03/25 03:31:02;;;;;;;11.02;7.13;;;;;;;;;;4926999;29;20209;-94
2021/03/25 03:33:31;;;;;;;8.30;6.10;;;;;;;;;;4933342;29;20216;-95
2021/03/25 03:35:58;;;;;;;8.13;6.20;;;;;;;;;;4930852;29;21049;-94
2021/03/25 03:38:27;;;;;;;7.05;5.80;;;;;;;;;;4936378;29;20218;-95
2021/03/25 03:40:55;;;;;;;11.02;5.32;;;;;;;;;;4945340;29;20209;-95
2021/03/25 03:43:22;;;;;;;13.07;6.68;;;;;;;;;;4932991;29;20207;-95
2021/03/25 03:45:56;;;;;;;9.35;6.13;;;;;;;;;;4950294;29;20193;-94
2021/03/25 03:48:31;;;;;;;7.82;5.40;;;;;;;;;;4944659;29;20202;-95
2021/03/25 03:50:58;;;;;;;9.30;5.85;;;;;;;;;;4947146;29;20286;-95
2021/03/25 03:53:25;;;;;;;10.77;6.95;;;;;;;;;;4931250;29;20219;-95
2021/03/25 03:55:52;;;;;;;9.00;6.88;;;;;;;;;;4930255;29;20211;-95
2021/03/25 03:58:24;;;;;;;14.80;7.53;;;;;;;;;;4939805;29;20200;-95
2021/03/25 04:00:53;;;;;;;18.40;10.25;;;;;;;;;;4943014;29;20192;-93
2021/03/25 04:03:21;;;;;;;17.67;10.45;;;;;;;;;;4945878;29;20227;-93
2021/03/25 04:05:52;;;;;;;18.20;11.05;;;;;;;;;;4937450;29;20212;-94
2021/03/25 04:08:21;;;;;;;11.75;7.85;;;;;;;;;;4934445;29;20214;-94
2021/03/25 04:10:51;;;;;;;11.25;7.18;;;;;;;;;;4931686;29;20222;-94
2021/03/25 04:13:19;;;;;;;9.20;7.10;;;;;;;;;;4934449;29;20211;-94
2021/03/25 04:15:49;;;;;;;11.60;7.88;;;;;;;;;;4930255;29;20302;-94
2021/03/25 04:18:17;;;;;;;9.73;7.05;;;;;;;;;;4938882;29;20210;-95
2021/03/25 04:20:45;;;;;;;14.32;8.45;;;;;;;;;;4940992;29;20216;-95
2021/03/25 04:23:13;;;;;;;12.82;8.30;;;;;;;;;;4938215;29;20234;-95
2021/03/25 04:25:41;;;;;;;9.32;7.90;;;;;;;;;;4935526;29;20204;-95
2021/03/25 04:28:09;;;;;;;11.63;8.07;;;;;;;;;;4933925;29;20213;-95
2021/03/25 04:30:37;;;;;;;11.18;7.50;;;;;;;;;;4941185;29;20219;-95
2021/03/25 04:33:05;;;;;;;13.00;8.13;;;;;;;;;;4931183;29;20206;-94
2021/03/25 04:35:31;;;;;;;10.50;7.10;;;;;;;;;;4935441;29;20454;-95
2021/03/25 04:37:58;;;;;;;16.00;9.00;;;;;;;;;;4940294;29;20210;-94
2021/03/25 04:40:25;;;;;;;13.48;7.90;;;;;;;;;;4935318;29;20273;-95
2021/03/25 04:42:52;;;;;;;14.00;8.93;;;;;;;;;;4937422;29;20237;-95
2021/03/25 04:45:23;;;;;;;16.95;10.57;;;;;;;;;;4935552;29;20211;-95
2021/03/25 04:47:51;;;;;;;22.92;13.85;;;;;;;;;;4949582;29;20207;-95
2021/03/25 04:50:21;;;;;;;25.35;15.18;;;;;;;;;;4933910;29;20213;-95
2021/03/25 04:52:47;;;;;;;23.98;13.90;;;;;;;;;;4935820;29;20295;-95
2021/03/25 04:55:17;;;;;;;28.15;14.50;;;;;;;;;;4927127;29;20213;-94
2021/03/25 04:57:45;;;;;;;26.50;15.48;;;;;;;;;;4933241;29;20212;-95
2021/03/25 05:00:12;;;;;;;30.58;15.77;;;;;;;;;;4944891;29;20235;-94
2021/03/25 05:02:39;;;;;;;30.23;15.85;;;;;;;;;;4936618;29;20820;-93
2021/03/25 05:05:06;;;;;;;29.30;16.40;;;;;;;;;;4930490;29;20208;-95
2021/03/25 05:07:34;;;;;;;25.48;15.93;;;;;;;;;;4933756;29;20208;-95
2021/03/25 05:10:01;;;;;;;26.45;15.77;;;;;;;;;;4938414;29;20208;-94
2021/03/25 05:12:27;;;;;;;32.78;17.83;;;;;;;;;;4938414;29;20219;-95
2021/03/25 05:14:55;;;;;;;33.92;18.80;;;;;;;;;;4937651;29;20222;-95
2021/03/25 05:17:29;;;;;;;30.60;17.60;;;;;;;;;;4942037;29;20262;-96
2021/03/25 05:19:57;;;;;;;33.25;16.33;;;;;;;;;;4931903;29;20296;-95
2021/03/25 05:22:25;;;;;;;30.67;17.27;;;;;;;;;;4933359;29;20212;-95
2021/03/25 05:24:57;;;;;;;24.55;15.25;;;;;;;;;;4941702;29;20207;-95
2021/03/25 05:27:26;;;;;;;25.23;15.88;;;;;;;;;;4942838;29;20211;-96
2021/03/25 05:29:53;;;;;;;26.90;18.10;;;;;;;;;;4945330;29;20204;-96
2021/03/25 05:32:21;;;;;;;27.45;16.38;;;;;;;;;;4935045;29;20210;-95
2021/03/25 05:34:49;;;;;;;28.00;16.90;;;;;;;;;;4940368;29;20203;-96
2021/03/25 05:37:15;;;;;;;25.70;17.50;;;;;;;;;;4949939;29;20214;-96
2021/03/25 05:39:42;;;;;;;23.42;14.75;;;;;;;;;;4957974;29;20180;-95
2021/03/25 05:42:14;;;;;;;21.48;14.45;;;;;;;;;;4939145;29;20210;-96
2021/03/25 05:44:58;;;;;;;21.15;13.90;;;;;;;;;;4944906;29;20738;-96
2021/03/25 05:47:30;;;;;;;16.10;11.68;;;;;;;;;;4934275;29;20219;-96
2021/03/25 05:50:02;;;;;;;18.80;11.77;;;;;;;;;;4942502;29;20355;-95
2021/03/25 05:52:33;;;;;;;19.65;12.75;;;;;;;;;;4934336;29;20601;-94
2021/03/25 05:55:15;;;;;;;21.85;13.60;;;;;;;;;;4929726;29;20203;-96
2021/03/25 05:57:50;;;;;;;19.60;13.13;;;;;;;;;;4935109;29;20252;-95
2021/03/25 06:00:25;;;;;;;22.00;14.38;;;;;;;;;;4929804;29;20223;-95
2021/03/25 06:02:53;;;;;;;25.17;12.90;;;;;;;;;;4942267;29;20226;-96
2021/03/25 06:05:19;;;;;;;23.17;14.23;;;;;;;;;;4947351;29;20208;-94
2021/03/25 06:08:17;;;;;;;25.08;15.18;;;;;;;;;;4939406;29;20211;-96
2021/03/25 06:10:49;;;;;;;20.67;14.77;;;;;;;;;;4852924;29;20242;-95
2021/03/25 06:13:22;;;;;;;22.67;14.98;;;;;;;;;;4917343;29;20208;-95
2021/03/25 06:16:01;;;;;;;23.55;14.80;;;;;;;;;;4930411;29;20232;-95
2021/03/25 06:18:42;;;;;;;19.45;12.40;;;;;;;;;;4929764;29;20208;-95
2021/03/25 06:21:11;;;;;;;20.80;14.00;;;;;;;;;;4910376;29;20303;-94
2021/03/25 06:23:46;;;;;;;24.58;15.77;;;;;;;;;;4936712;29;20232;-95
2021/03/25 06:26:23;;;;;;;23.88;14.00;;;;;;;;;;4943813;29;20210;-95
2021/03/25 06:29:04;;;;;;;20.65;13.73;;;;;;;;;;4938690;29;20234;-95
2021/03/25 06:31:44;;;;;;;24.85;14.40;;;;;;;;;;4913459;29;20581;-95
2021/03/25 06:34:15;;;;;;;23.23;14.70;;;;;;;;;;4910746;29;20200;-95
2021/03/25 06:36:43;;;;;;;20.48;13.65;;;;;;;;;;4937236;29;20209;-95
2021/03/25 06:39:14;;;;;;;21.42;14.55;;;;;;;;;;4937378;29;20208;-95
2021/03/25 06:41:48;;;;;;;19.95;13.18;;;;;;;;;;4936948;29;20231;-96
2021/03/25 06:44:18;;;;;;;25.40;15.05;;;;;;;;;;4937451;29;20235;-96
2021/03/25 06:46:45;;;;;;;17.85;12.30;;;;;;;;;;4935795;29;20215;-95
2021/03/25 06:49:18;;;;;;;15.70;11.05;;;;;;;;;;4937701;29;20223;-95
2021/03/25 06:51:44;;;;;;;18.10;12.25;;;;;;;;;;4931849;29;20810;-95
2021/03/25 06:54:11;;;;;;;16.85;12.20;;;;;;;;;;4928511;29;20208;-94
2021/03/25 06:56:39;;;;;;;15.23;11.35;;;;;;;;;;4927063;29;20278;-96
2021/03/25 06:59:09;;;;;;;18.08;11.98;;;;;;;;;;4930218;29;20231;-96
2021/03/25 07:01:40;;;;;;;14.98;10.60;;;;;;;;;;4932378;29;20284;-92
2021/03/25 07:04:08;;;;;;;15.52;11.38;;;;;;;;;;4920270;29;20235;-94
2021/03/25 07:06:35;;;;;;;14.82;10.00;;;;;;;;;;4935495;29;20239;-94
2021/03/25 07:09:01;;;;;;;16.25;11.20;;;;;;;;;;4936762;29;20263;-93
2021/03/25 07:11:28;;;;;;;16.35;11.70;;;;;;;;;;4928258;29;20204;-95
2021/03/25 07:13:59;;;;;;;15.68;10.55;;;;;;;;;;4934827;29;20210;-96
2021/03/25 07:16:30;;;;;;;13.18;10.38;;;;;;;;;;4942159;29;20386;-96
2021/03/25 07:18:59;;;;;;;16.80;9.57;;;;;;;;;;4946346;29;20222;-95
2021/03/25 07:21:27;;;;;;;22.33;11.18;;;;;;;;;;4931680;29;20219;-92
2021/03/25 07:23:54;;;;;;;18.45;11.80;;;;;;;;;;4942066;29;20230;-94
2021/03/25 07:26:37;;;;;;;19.77;13.77;;;;;;;;;;4934792;29;20269;-94
2021/03/25 07:29:15;;;;;;;25.58;16.90;;;;;;;;;;4938370;29;20251;-93
2021/03/25 07:31:44;;;;;;;25.88;16.77;;;;;;;;;;4943556;29;20220;-93
2021/03/25 07:34:11;;;;;;;18.15;14.40;;;;;;;;;;4948282;29;20235;-95
2021/03/25 07:36:47;;;;;;;21.45;14.80;;;;;;;;;;4936907;29;20207;-95
2021/03/25 07:39:14;;;;;;;21.92;14.07;;;;;;;;;;4944634;29;20282;-95
2021/03/25 07:41:44;;;;;;;22.48;13.95;;;;;;;;;;4937063;29;20207;-92
2021/03/25 07:44:26;;;;;;;18.63;13.00;;;;;;;;;;4945438;29;20231;-93
2021/03/25 07:46:53;;;;;;;22.02;14.15;;;;;;;;;;4927482;29;20219;-95
2021/03/25 07:49:22;;;;;;;21.23;12.48;;;;;;;;;;4936543;29;20274;-95
2021/03/25 07:51:49;;;;;;;18.77;13.68;;;;;;;;;;4938139;29;20225;-94
2021/03/25 07:54:19;;;;;;;17.75;11.75;;;;;;;;;;4942636;29;20207;-94
2021/03/25 07:56:54;;;;;;;16.52;11.98;;;;;;;;;;4943254;29;20207;-93
2021/03/25 07:59:30;;;;;;;17.13;12.35;;;;;;;;;;4934292;29;20207;-94
2021/03/25 08:01:56;;;;;;;16.35;11.10;;;;;;;;;;4928345;29;20205;-95
2021/03/25 08:04:27;;;;;;;16.92;11.45;;;;;;;;;;4926821;29;20237;-94
2021/03/25 08:07:04;;;;;;;15.73;11.05;;;;;;;;;;4934427;29;20208;-93
2021/03/25 08:09:40;;;;;;;18.50;10.80;;;;;;;;;;4926742;29;20750;-95
2021/03/25 08:12:07;;;;;;;15.60;10.60;;;;;;;;;;4932280;29;20204;-94
2021/03/25 08:14:34;;;;;;;14.05;10.18;;;;;;;;;;4928745;29;20231;-94
2021/03/25 08:17:02;;;;;;;19.33;10.50;;;;;;;;;;4931667;29;21775;-95
2021/03/25 08:19:36;;;;;;;14.10;9.47;;;;;;;;;;4935973;29;20246;-95
2021/03/25 08:22:12;;;;;;;18.15;9.70;;;;;;;;;;4932776;29;20444;-94
2021/03/25 08:25:05;;;;;;;14.65;9.02;;;;;;;;;;4928395;29;20224;-96
2021/03/25 08:27:40;;;;;;;14.27;8.70;;;;;;;;;;4932331;29;20211;-96
2021/03/25 08:30:16;;;;;;;11.00;8.57;;;;;;;;;;4930346;29;20232;-95
2021/03/25 08:32:49;;;;;;;12.13;8.77;;;;;;;;;;4931824;29;20464;-93
2021/03/25 08:35:19;;;;;;;14.55;9.32;;;;;;;;;;4918575;29;20678;-96
2021/03/25 08:38:16;;;;;;;11.40;8.40;;;;;;;;;;4931750;29;20212;-96
2021/03/25 08:40:56;;;;;;;12.97;9.13;;;;;;;;;;4935618;29;20519;-96
2021/03/25 08:46:08;;;;;;;13.93;8.10;;;;;;;;;;4939397;29;20440;-93
2021/03/25 08:48:37;;;;;;;13.73;9.20;;;;;;;;;;4937503;29;20488;-96
2021/03/25 08:51:21;;;;;;;17.43;9.30;;;;;;;;;;4944571;29;20459;-96
2021/03/25 08:56:25;;;;;;;17.37;10.67;;;;;;;;;;4914820;29;20503;-95
2021/03/25 08:58:58;;;;;;;12.63;9.43;;;;;;;;;;4912889;29;20475;-95
2021/03/25 09:01:30;;;;;;;14.67;9.57;;;;;;;;;;4915604;29;20472;-95
2021/03/25 09:06:33;;;;;;;10.53;7.77;;;;;;;;;;4933464;29;20578;-96
2021/03/25 09:09:02;;;;;;;12.57;7.43;;;;;;;;;;4941430;29;20464;-96
2021/03/25 09:11:30;;;;;;;10.63;7.17;;;;;;;;;;4938964;29;21159;-96
2021/03/25 09:13:57;;;;;;;13.73;8.47;;;;;;;;;;4938949;29;20492;-94
2021/03/25 09:16:25;;;;;;;13.53;8.30;;;;;;;;;;4940455;29;20459;-95
2021/03/25 09:18:52;;;;;;;7.70;6.80;;;;;;;;;;4953320;29;20463;-94
2021/03/25 09:21:19;;;;;;;6.50;5.20;;;;;;;;;;4937565;29;20518;-94
2021/03/25 09:24:00;;;;;;;7.17;5.90;;;;;;;;;;4947893;29;20498;-96
2021/03/25 09:26:53;;;;;;;6.23;4.70;;;;;;;;;;4932952;29;20456;-96
2021/03/25 09:29:21;;;;;;;5.80;5.20;;;;;;;;;;4895849;29;20454;-95
2021/03/25 09:32:06;;;;;;;5.03;4.63;;;;;;;;;;4931535;29;20448;-95
2021/03/25 09:34:47;;;;;;;9.13;4.13;;;;;;;;;;4933699;29;20456;-95
2021/03/25 09:37:17;;;;;;;4.77;4.07;;;;;;;;;;4930006;29;20475;-94
2021/03/25 09:39:44;;;;;;;4.27;3.87;;;;;;;;;;4938151;29;20530;-94
2021/03/25 09:42:26;;;;;;;5.50;5.00;;;;;;;;;;4943621;29;20448;-96
2021/03/25 09:44:54;;;;;;;5.23;4.27;;;;;;;;;;4948833;29;20563;-95
2021/03/25 09:47:25;;;;;;;6.37;4.50;;;;;;;;;;4946385;29;20456;-94
2021/03/25 09:50:00;;;;;;;5.07;4.50;;;;;;;;;;4957150;29;20463;-96
2021/03/25 09:55:26;;;;;;;5.20;4.80;;;;;;;;;;5002643;28;20441;-96
2021/03/25 09:58:19;;;;;;;4.43;3.83;;;;;;;;;;5007468;28;20448;-96
2021/03/25 10:00:58;;;;;;;6.60;4.07;;;;;;;;;;4980763;28;20465;-95
2021/03/25 10:03:45;;;;;;;6.20;4.87;;;;;;;;;;5003753;28;20493;-95
2021/03/25 10:06:26;;;;;;;5.43;4.90;;;;;;;;;;5004576;28;20451;-94
2021/03/25 10:08:55;;;;;;;6.10;4.80;;;;;;;;;;4984362;28;20445;-96
2021/03/25 10:14:39;;;;;;;5.20;4.20;;;;;;;;;;4995096;28;20505;-96
2021/03/25 10:17:06;;;;;;;8.00;5.43;;;;;;;;;;4994063;28;20426;-95
2021/03/25 10:19:56;;;;;;;6.17;5.00;;;;;;;;;;5003564;28;20454;-96
2021/03/25 10:22:37;;;;;;;6.13;4.23;;;;;;;;;;5001559;28;20472;-96
2021/03/25 10:25:06;;;;;;;12.53;6.30;;;;;;;;;;5002056;28;20489;-96
2021/03/25 10:27:36;;;;;;;5.53;4.23;;;;;;;;;;4999188;28;20453;-96
2021/03/25 10:30:19;;;;;;;5.40;4.33;;;;;;;;;;4999695;28;20432;-96
2021/03/25 10:35:24;;;;;;;4.23;3.83;;;;;;;;;;4694899;27;20495;-96
2021/03/25 10:37:52;;;;;;;6.10;3.30;;;;;;;;;;4935759;29;20518;-96
2021/03/25 10:40:24;;;;;;;9.00;5.23;;;;;;;;;;4939022;29;20481;-96
2021/03/25 10:42:55;;;;;;;4.60;4.03;;;;;;;;;;4939654;29;20484;-96
2021/03/25 10:45:26;;;;;;;7.43;5.30;;;;;;;;;;4943077;29;20945;-96
2021/03/25 10:47:55;;;;;;;15.30;4.50;;;;;;;;;;4945475;29;20992;-95
2021/03/25 10:50:38;;;;;;;9.57;4.67;;;;;;;;;;4934624;29;20496;-96
2021/03/25 10:56:02;;;;;;;7.03;4.27;;;;;;;;;;4933131;29;20448;-95
2021/03/25 10:58:31;;;;;;;4.93;4.07;;;;;;;;;;4943256;29;20467;-96
2021/03/25 11:01:03;;;;;;;5.13;4.10;;;;;;;;;;4930540;29;20487;-94
2021/03/25 11:03:32;;;;;;;5.97;4.17;;;;;;;;;;4939757;29;20454;-96
2021/03/25 11:05:59;;;;;;;5.87;4.00;;;;;;;;;;4930641;29;20452;-94
2021/03/25 11:08:42;;;;;;;4.30;3.90;;;;;;;;;;4933014;23;20660;-95
2021/03/25 11:11:11;;;;;;;5.70;4.23;;;;;;;;;;4923576;29;20472;-94
2021/03/25 11:13:37;;;;;;;5.60;3.93;;;;;;;;;;4914425;29;20476;-93
2021/03/25 11:16:05;;;;;;;4.63;4.20;;;;;;;;;;4919232;29;20452;-95
2021/03/25 11:18:34;;;;;;;4.90;4.07;;;;;;;;;;5013909;23;20486;-93
2021/03/25 11:21:01;;;;;;;8.33;4.50;;;;;;;;;;4949826;29;20551;-95
2021/03/25 11:23:28;;;;;;;5.13;4.63;;;;;;;;;;4956210;29;20532;-94
2021/03/25 11:25:56;;;;;;;4.13;3.67;;;;;;;;;;4965475;29;20454;-94
2021/03/25 11:28:22;;;;;;;6.07;4.30;;;;;;;;;;4965560;29;20467;-94
2021/03/25 11:30:51;;;;;;;7.00;4.73;;;;;;;;;;4948078;29;20451;-95
2021/03/25 11:33:33;;;;;;;7.57;3.80;;;;;;;;;;4966595;29;20841;-93
2021/03/25 11:36:02;;;;;;;6.30;4.70;;;;;;;;;;4956358;29;20467;-94
2021/03/25 11:38:41;;;;;;;8.23;4.40;;;;;;;;;;4943240;29;20474;-94
2021/03/25 11:41:09;;;;;;;4.87;4.47;;;;;;;;;;4946554;29;20447;-92
2021/03/25 11:43:43;;;;;;;7.33;4.47;;;;;;;;;;4955373;29;20491;-95
2021/03/25 11:46:11;;;;;;;5.50;4.63;;;;;;;;;;4960701;28;20451;-92
2021/03/25 11:48:37;;;;;;;4.70;4.20;;;;;;;;;;4955682;29;20475;-94
2021/03/25 11:51:46;;;;;;;5.10;4.30;;;;;;;;;;4958290;29;20460;-96
2021/03/25 11:54:25;;;;;;;5.17;4.67;;;;;;;;;;4957792;29;20530;-95
2021/03/25 11:56:53;;;;;;;7.53;5.83;;;;;;;;;;4947236;29;20467;-96
2021/03/25 11:59:40;;;;;;;7.50;4.70;;;;;;;;;;4965887;29;20442;-96
2021/03/25 12:04:45;;;;;;;6.37;5.30;;;;;;;;;;4938998;29;20507;-95
2021/03/25 12:07:21;;;;;;;5.50;4.90;;;;;;;;;;4940421;29;20462;-96
2021/03/25 12:10:04;;;;;;;6.20;5.57;;;;;;;;;;4945984;29;20479;-95
2021/03/25 12:12:31;;;;;;;6.90;5.27;;;;;;;;;;4920696;29;20452;-95
2021/03/25 12:15:21;;;;;;;6.60;4.77;;;;;;;;;;4934481;29;20449;-96
2021/03/25 12:26:31;;;;;;;5.37;4.87;;;;;;;;;;4967609;29;20457;-96
2021/03/25 12:29:02;;;;;;;7.40;5.30;;;;;;;;;;4955566;29;20474;-92
2021/03/25 12:31:35;;;;;;;5.77;4.50;;;;;;;;;;4955155;29;20460;-94
2021/03/25 12:34:01;;;;;;;6.93;5.20;;;;;;;;;;4960626;23;20502;-91
2021/03/25 12:36:28;;;;;;;7.70;6.17;;;;;;;;;;4940429;29;20460;-93
2021/03/25 12:38:55;;;;;;;6.70;5.43;;;;;;;;;;4947393;29;20456;-96
2021/03/25 12:41:25;;;;;;;6.50;5.87;;;;;;;;;;4939633;29;20456;-94
2021/03/25 12:43:51;;;;;;;7.90;5.10;;;;;;;;;;4948014;29;20530;-92
2021/03/25 12:46:18;;;;;;;6.30;5.40;;;;;;;;;;4958648;29;20470;-90
2021/03/25 12:48:44;;;;;;;6.33;5.23;;;;;;;;;;4948430;29;20459;-92
2021/03/25 12:51:13;;;;;;;5.67;5.10;;;;;;;;;;4949949;29;20464;-94
2021/03/25 12:53:39;;;;;;;6.53;5.60;;;;;;;;;;4968268;29;20472;-94
2021/03/25 12:56:06;;;;;;;6.47;5.50;;;;;;;;;;4961257;29;20470;-94
2021/03/25 12:58:49;;;;;;;6.83;5.73;;;;;;;;;;4958709;29;20481;-95
2021/03/25 13:01:21;;;;;;;7.70;5.73;;;;;;;;;;4947539;29;20618;-92
2021/03/25 13:03:48;;;;;;;6.27;5.57;;;;;;;;;;4951206;29;20490;-91
2021/03/25 13:06:17;;;;;;;6.90;5.77;;;;;;;;;;4954402;29;20455;-94
2021/03/25 13:08:43;;;;;;;6.97;5.97;;;;;;;;;;4946161;29;20467;-95
2021/03/25 13:11:11;;;;;;;6.10;5.10;;;;;;;;;;4940949;29;20523;-95
2021/03/25 13:13:43;;;;;;;7.60;6.83;;;;;;;;;;4963160;29;20450;-94
2021/03/25 13:16:12;;;;;;;6.10;5.17;;;;;;;;;;4955729;29;20519;-94
2021/03/25 13:18:39;;;;;;;6.33;5.73;;;;;;;;;;4949870;29;20451;-91
2021/03/25 13:21:06;;;;;;;8.80;5.17;;;;;;;;;;4950343;29;20463;-94
2021/03/25 13:23:33;;;;;;;5.87;5.20;;;;;;;;;;4946237;29;21003;-94
2021/03/25 13:26:00;;;;;;;7.97;5.57;;;;;;;;;;4953645;29;20451;-92
2021/03/25 13:28:29;;;;;;;13.27;6.27;;;;;;;;;;4956691;29;20458;-94
2021/03/25 13:30:55;;;;;;;9.93;6.90;;;;;;;;;;4947941;29;21898;-92
2021/03/25 13:33:21;;;;;;;5.53;5.00;;;;;;;;;;4951420;29;20503;-92
2021/03/25 13:35:49;;;;;;;8.90;5.20;;;;;;;;;;4947765;29;20475;-95
2021/03/25 13:38:17;;;;;;;6.63;6.03;;;;;;;;;;4959172;29;20479;-95
2021/03/25 13:40:43;;;;;;;7.50;5.37;;;;;;;;;;4966164;29;20552;-91
2021/03/25 13:43:16;;;;;;;9.63;7.00;;;;;;;;;;4963568;29;20819;-94
2021/03/25 13:45:42;;;;;;;7.50;6.00;;;;;;;;;;4962082;29;20457;-93
2021/03/25 13:48:08;;;;;;;8.83;6.53;;;;;;;;;;4953265;29;20466;-92
2021/03/25 13:50:38;;;;;;;7.87;6.00;;;;;;;;;;4964003;29;20455;-95
2021/03/25 13:53:05;;;;;;;6.37;5.07;;;;;;;;;;4954529;29;21040;-94
2021/03/25 13:55:32;;;;;;;7.83;5.83;;;;;;;;;;4957645;29;20467;-94
2021/03/25 13:58:01;;;;;;;7.40;5.30;;;;;;;;;;4956088;29;20478;-96
2021/03/25 14:00:27;;;;;;;6.10;5.50;;;;;;;;;;4957575;29;20509;-92
2021/03/25 14:02:54;;;;;;;6.47;5.10;;;;;;;;;;4962346;29;20462;-93
2021/03/25 14:05:23;;;;;;;7.00;5.10;;;;;;;;;;4960599;29;20533;-94
2021/03/25 14:07:49;;;;;;;6.43;5.53;;;;;;;;;;4952459;29;20931;-94
2021/03/25 14:10:16;;;;;;;4.90;4.47;;;;;;;;;;4958949;29;20454;-96
2021/03/25 14:12:45;;;;;;;6.63;5.50;;;;;;;;;;4953104;29;20482;-96
2021/03/25 14:15:13;;;;;;;8.17;5.57;;;;;;;;;;4956244;29;20473;-93
2021/03/25 14:17:41;;;;;;;6.80;5.03;;;;;;;;;;4961233;29;20471;-96
2021/03/25 14:20:12;;;;;;;6.37;4.57;;;;;;;;;;4967264;29;20850;-96
2021/03/25 14:22:41;;;;;;;9.60;6.40;;;;;;;;;;4957806;29;20455;-96
2021/03/25 14:25:18;;;;;;;7.00;6.30;;;;;;;;;;4960410;29;20496;-95
2021/03/25 14:27:45;;;;;;;9.67;6.70;;;;;;;;;;4951642;29;20490;-93
2021/03/25 14:30:13;;;;;;;11.23;6.93;;;;;;;;;;4949086;29;20459;-95
2021/03/25 14:32:39;;;;;;;6.13;4.90;;;;;;;;;;4958009;29;20467;-94
2021/03/25 14:35:07;;;;;;;8.73;5.10;;;;;;;;;;4951557;29;20467;-95
2021/03/25 14:37:33;;;;;;;6.30;5.40;;;;;;;;;;4962547;29;20447;-94
2021/03/25 14:39:59;;;;;;;9.73;5.50;;;;;;;;;;4965950;29;20487;-93
2021/03/25 14:42:26;;;;;;;8.10;5.33;;;;;;;;;;4952341;29;20538;-92
2021/03/25 14:44:57;;;;;;;8.67;5.67;;;;;;;;;;4934527;29;20490;-93
2021/03/25 14:47:25;;;;;;;6.37;5.10;;;;;;;;;;4951997;28;20447;-93
2021/03/25 14:49:51;;;;;;;7.10;5.00;;;;;;;;;;4959608;29;20458;-91
2021/03/25 14:52:17;;;;;;;6.20;5.60;;;;;;;;;;4955760;29;20447;-92
2021/03/25 14:54:46;;;;;;;8.10;4.83;;;;;;;;;;4946099;29;20466;-96
2021/03/25 14:57:16;;;;;;;9.70;6.40;;;;;;;;;;4950134;28;20462;-94
2021/03/25 14:59:42;;;;;;;5.83;5.20;;;;;;;;;;4952410;29;20466;-91
2021/03/25 15:02:21;;;;;;;6.27;4.53;;;;;;;;;;4965616;29;20459;-93
2021/03/25 15:04:47;;;;;;;6.10;4.60;;;;;;;;;;4939894;29;20581;-93
2021/03/25 15:07:13;;;;;;;5.27;4.57;;;;;;;;;;4947500;29;20458;-91
2021/03/25 15:09:39;;;;;;;4.60;3.90;;;;;;;;;;4954040;29;20470;-95
2021/03/25 15:12:06;;;;;;;6.63;5.60;;;;;;;;;;4956726;29;20470;-95
2021/03/25 15:14:33;;;;;;;7.60;5.50;;;;;;;;;;4961280;29;20454;-94
2021/03/25 15:16:59;;;;;;;8.60;6.07;;;;;;;;;;4956823;28;20466;-94
2021/03/25 15:22:01;;;;;;;7.63;5.40;;;;;;;;;;4958927;23;20500;-92
2021/03/25 15:24:27;;;;;;;6.53;5.63;;;;;;;;;;4938238;29;20499;-93
2021/03/25 15:26:53;;;;;;;5.73;4.77;;;;;;;;;;4927843;29;20510;-94
2021/03/25 15:29:19;;;;;;;5.97;5.13;;;;;;;;;;4932886;29;20455;-93
2021/03/25 15:31:53;;;;;;;6.53;5.87;;;;;;;;;;4929362;29;20457;-96
2021/03/25 15:34:27;;;;;;;8.40;6.40;;;;;;;;;;4941018;29;20436;-96
2021/03/25 15:36:59;;;;;;;6.40;5.43;;;;;;;;;;4941105;23;20507;-96
2021/03/25 15:39:30;;;;;;;6.90;5.77;;;;;;;;;;4917052;29;20445;-94
2021/03/25 15:41:56;;;;;;;7.63;5.70;;;;;;;;;;4907612;29;20465;-94